sensor_id;sensor_type;location;lat;lon;timestamp;pressure;altitude;pressure_sealevel;temperature;humidity
77881;BME280;67077;50.298;18.996;2024-01-06T00:01:27;96942.36;;;-0.62;100.00
77881;BME280;67077;50.298;18.996;2024-01-06T00:03:55;96934.77;;;-0.62;100.00
77881;BME280;67077;50.298;18.996;2024-01-06T00:06:23;96931.52;;;-0.63;100.00
77881;BME280;67077;50.298;18.996;2024-01-06T00:08:51;96935.29;;;-0.65;100.00
77881;BME280;67077;50.298;18.996;2024-01-06T00:11:22;96925.23;;;-0.68;100.00
77881;BME280;67077;50.298;18.996;2024-01-06T00:13:50;96918.73;;;-0.71;100.00
77881;BME280;67077;50.298;18.996;2024-01-06T00:16:21;96917.98;;;-0.75;100.00
77881;BME280;67077;50.298;18.996;2024-01-06T00:18:49;96917.48;;;-0.79;100.00
77881;BME280;67077;50.298;18.996;2024-01-06T00:21:17;96920.45;;;-0.80;100.00
77881;BME280;67077;50.298;18.996;2024-01-06T00:23:44;96920.55;;;-0.81;100.00
77881;BME280;67077;50.298;18.996;2024-01-06T00:26:12;96920.56;;;-0.82;100.00
77881;BME280;67077;50.298;18.996;2024-01-06T00:28:40;96921.83;;;-0.83;100.00
77881;BME280;67077;50.298;18.996;2024-01-06T00:31:08;96920.83;;;-0.83;100.00
77881;BME280;67077;50.298;18.996;2024-01-06T00:33:36;96921.52;;;-0.83;100.00
77881;BME280;67077;50.298;18.996;2024-01-06T00:36:04;96924.37;;;-0.82;100.00
77881;BME280;67077;50.298;18.996;2024-01-06T00:38:32;96923.23;;;-0.80;100.00
77881;BME280;67077;50.298;18.996;2024-01-06T00:41:00;96921.52;;;-0.77;100.00
77881;BME280;67077;50.298;18.996;2024-01-06T00:43:28;96916.95;;;-0.76;100.00
77881;BME280;67077;50.298;18.996;2024-01-06T00:45:56;96919.42;;;-0.74;100.00
77881;BME280;67077;50.298;18.996;2024-01-06T00:48:23;96919.82;;;-0.74;100.00
77881;BME280;67077;50.298;18.996;2024-01-06T00:50:51;96922.74;;;-0.79;100.00
77881;BME280;67077;50.298;18.996;2024-01-06T00:53:19;96929.38;;;-0.82;100.00
77881;BME280;67077;50.298;18.996;2024-01-06T00:55:47;96933.45;;;-0.82;100.00
77881;BME280;67077;50.298;18.996;2024-01-06T00:58:15;96929.52;;;-0.83;100.00
77881;BME280;67077;50.298;18.996;2024-01-06T01:00:42;96936.74;;;-0.86;100.00
77881;BME280;67077;50.298;18.996;2024-01-06T01:03:10;96937.70;;;-0.87;100.00
77881;BME280;67077;50.298;18.996;2024-01-06T01:05:38;96933.99;;;-0.87;100.00
77881;BME280;67077;50.298;18.996;2024-01-06T01:08:06;96934.70;;;-0.88;100.00
77881;BME280;67077;50.298;18.996;2024-01-06T01:10:34;96937.35;;;-0.87;100.00
77881;BME280;67077;50.298;18.996;2024-01-06T01:13:01;96938.98;;;-0.84;100.00
77881;BME280;67077;50.298;18.996;2024-01-06T01:15:29;96938.35;;;-0.80;100.00
77881;BME280;67077;50.298;18.996;2024-01-06T01:17:57;96941.40;;;-0.78;100.00
77881;BME280;67077;50.298;18.996;2024-01-06T01:20:25;96937.04;;;-0.75;100.00
77881;BME280;67077;50.298;18.996;2024-01-06T01:22:53;96939.00;;;-0.72;100.00
77881;BME280;67077;50.298;18.996;2024-01-06T01:25:20;96943.78;;;-0.69;100.00
77881;BME280;67077;50.298;18.996;2024-01-06T01:27:48;96942.78;;;-0.68;100.00
77881;BME280;67077;50.298;18.996;2024-01-06T01:30:16;96946.65;;;-0.66;100.00
77881;BME280;67077;50.298;18.996;2024-01-06T01:32:44;96952.00;;;-0.64;100.00
77881;BME280;67077;50.298;18.996;2024-01-06T01:35:12;96947.91;;;-0.60;100.00
77881;BME280;67077;50.298;18.996;2024-01-06T01:37:39;96950.02;;;-0.57;100.00
77881;BME280;67077;50.298;18.996;2024-01-06T01:40:08;96947.20;;;-0.54;100.00
77881;BME280;67077;50.298;18.996;2024-01-06T01:42:36;96938.67;;;-0.54;100.00
77881;BME280;67077;50.298;18.996;2024-01-06T01:45:05;96937.88;;;-0.54;100.00
77881;BME280;67077;50.298;18.996;2024-01-06T01:47:32;96936.61;;;-0.54;100.00
77881;BME280;67077;50.298;18.996;2024-01-06T01:50:00;96935.45;;;-0.53;100.00
77881;BME280;67077;50.298;18.996;2024-01-06T01:52:29;96942.58;;;-0.52;100.00
77881;BME280;67077;50.298;18.996;2024-01-06T01:54:57;96938.81;;;-0.52;100.00
77881;BME280;67077;50.298;18.996;2024-01-06T01:57:26;96938.40;;;-0.50;100.00
77881;BME280;67077;50.298;18.996;2024-01-06T01:59:55;96938.16;;;-0.49;100.00
77881;BME280;67077;50.298;18.996;2024-01-06T02:02:23;96939.76;;;-0.49;100.00
77881;BME280;67077;50.298;18.996;2024-01-06T02:04:51;96942.63;;;-0.48;100.00
77881;BME280;67077;50.298;18.996;2024-01-06T02:07:18;96945.68;;;-0.46;100.00
77881;BME280;67077;50.298;18.996;2024-01-06T02:09:46;96943.18;;;-0.44;100.00
77881;BME280;67077;50.298;18.996;2024-01-06T02:12:14;96939.89;;;-0.43;100.00
77881;BME280;67077;50.298;18.996;2024-01-06T02:14:42;96935.55;;;-0.41;100.00
77881;BME280;67077;50.298;18.996;2024-01-06T02:17:10;96933.39;;;-0.37;100.00
77881;BME280;67077;50.298;18.996;2024-01-06T02:19:38;96937.17;;;-0.35;100.00
77881;BME280;67077;50.298;18.996;2024-01-06T02:22:06;96935.09;;;-0.36;100.00
77881;BME280;67077;50.298;18.996;2024-01-06T02:24:34;96935.45;;;-0.34;100.00
77881;BME280;67077;50.298;18.996;2024-01-06T02:27:02;96934.02;;;-0.33;100.00
77881;BME280;67077;50.298;18.996;2024-01-06T02:29:30;96929.85;;;-0.30;100.00
77881;BME280;67077;50.298;18.996;2024-01-06T02:31:57;96925.73;;;-0.29;100.00
77881;BME280;67077;50.298;18.996;2024-01-06T02:34:26;96925.37;;;-0.29;100.00
77881;BME280;67077;50.298;18.996;2024-01-06T02:36:54;96921.38;;;-0.28;100.00
77881;BME280;67077;50.298;18.996;2024-01-06T02:39:21;96919.45;;;-0.29;100.00
77881;BME280;67077;50.298;18.996;2024-01-06T02:41:51;96916.16;;;-0.28;100.00
77881;BME280;67077;50.298;18.996;2024-01-06T02:44:19;96913.80;;;-0.27;100.00
77881;BME280;67077;50.298;18.996;2024-01-06T02:46:46;96907.30;;;-0.28;100.00
77881;BME280;67077;50.298;18.996;2024-01-06T02:49:14;96913.39;;;-0.27;100.00
77881;BME280;67077;50.298;18.996;2024-01-06T02:51:42;96911.00;;;-0.26;100.00
77881;BME280;67077;50.298;18.996;2024-01-06T02:54:10;96910.50;;;-0.26;100.00
77881;BME280;67077;50.298;18.996;2024-01-06T02:56:37;96905.30;;;-0.27;100.00
77881;BME280;67077;50.298;18.996;2024-01-06T02:59:06;96910.23;;;-0.26;100.00
77881;BME280;67077;50.298;18.996;2024-01-06T03:01:34;96909.45;;;-0.22;100.00
77881;BME280;67077;50.298;18.996;2024-01-06T03:04:02;96913.06;;;-0.21;100.00
77881;BME280;67077;50.298;18.996;2024-01-06T03:06:30;96912.86;;;-0.21;100.00
77881;BME280;67077;50.298;18.996;2024-01-06T03:08:58;96908.42;;;-0.20;100.00
77881;BME280;67077;50.298;18.996;2024-01-06T03:11:26;96909.04;;;-0.17;100.00
77881;BME280;67077;50.298;18.996;2024-01-06T03:13:53;96906.92;;;-0.15;100.00
77881;BME280;67077;50.298;18.996;2024-01-06T03:16:21;96904.02;;;-0.14;100.00
77881;BME280;67077;50.298;18.996;2024-01-06T03:18:49;96899.41;;;-0.12;100.00
77881;BME280;67077;50.298;18.996;2024-01-06T03:21:20;96895.50;;;-0.12;100.00
77881;BME280;67077;50.298;18.996;2024-01-06T03:23:48;96894.98;;;-0.11;100.00
77881;BME280;67077;50.298;18.996;2024-01-06T03:26:17;96888.64;;;-0.11;100.00
77881;BME280;67077;50.298;18.996;2024-01-06T03:28:44;96891.27;;;-0.11;100.00
77881;BME280;67077;50.298;18.996;2024-01-06T03:31:12;96884.91;;;-0.09;100.00
77881;BME280;67077;50.298;18.996;2024-01-06T03:33:40;96884.80;;;-0.08;100.00
77881;BME280;67077;50.298;18.996;2024-01-06T03:36:12;96890.27;;;-0.05;100.00
77881;BME280;67077;50.298;18.996;2024-01-06T03:38:40;96890.48;;;-0.03;100.00
77881;BME280;67077;50.298;18.996;2024-01-06T03:41:08;96891.32;;;0.01;100.00
77881;BME280;67077;50.298;18.996;2024-01-06T03:43:35;96889.88;;;0.04;100.00
77881;BME280;67077;50.298;18.996;2024-01-06T03:46:05;96893.92;;;0.07;100.00
77881;BME280;67077;50.298;18.996;2024-01-06T03:48:32;96894.09;;;0.10;100.00
77881;BME280;67077;50.298;18.996;2024-01-06T03:51:01;96893.73;;;0.12;100.00
77881;BME280;67077;50.298;18.996;2024-01-06T03:53:29;96893.83;;;0.12;100.00
77881;BME280;67077;50.298;18.996;2024-01-06T03:55:57;96893.55;;;0.13;100.00
77881;BME280;67077;50.298;18.996;2024-01-06T03:58:25;96897.38;;;0.17;100.00
77881;BME280;67077;50.298;18.996;2024-01-06T04:00:53;96902.45;;;0.23;100.00
77881;BME280;67077;50.298;18.996;2024-01-06T04:03:21;96900.54;;;0.27;100.00
77881;BME280;67077;50.298;18.996;2024-01-06T04:05:49;96903.16;;;0.30;100.00
77881;BME280;67077;50.298;18.996;2024-01-06T04:08:17;96911.49;;;0.35;100.00
77881;BME280;67077;50.298;18.996;2024-01-06T04:10:45;96908.58;;;0.37;100.00
77881;BME280;67077;50.298;18.996;2024-01-06T04:13:14;96908.14;;;0.39;100.00
77881;BME280;67077;50.298;18.996;2024-01-06T04:15:42;96910.98;;;0.41;100.00
77881;BME280;67077;50.298;18.996;2024-01-06T04:18:10;96915.30;;;0.43;100.00
77881;BME280;67077;50.298;18.996;2024-01-06T04:20:38;96921.05;;;0.47;100.00
77881;BME280;67077;50.298;18.996;2024-01-06T04:23:06;96920.92;;;0.52;100.00
77881;BME280;67077;50.298;18.996;2024-01-06T04:25:33;96917.54;;;0.56;100.00
77881;BME280;67077;50.298;18.996;2024-01-06T04:28:01;96917.14;;;0.60;100.00
77881;BME280;67077;50.298;18.996;2024-01-06T04:30:29;96915.36;;;0.65;100.00
77881;BME280;67077;50.298;18.996;2024-01-06T04:32:57;96920.39;;;0.69;100.00
77881;BME280;67077;50.298;18.996;2024-01-06T04:35:25;96920.83;;;0.71;100.00
77881;BME280;67077;50.298;18.996;2024-01-06T04:37:53;96924.46;;;0.74;100.00
77881;BME280;67077;50.298;18.996;2024-01-06T04:40:20;96915.30;;;0.77;100.00
77881;BME280;67077;50.298;18.996;2024-01-06T04:42:48;96919.33;;;0.77;100.00
77881;BME280;67077;50.298;18.996;2024-01-06T04:45:16;96921.83;;;0.79;100.00
77881;BME280;67077;50.298;18.996;2024-01-06T04:47:47;96919.61;;;0.81;100.00
77881;BME280;67077;50.298;18.996;2024-01-06T04:50:15;96919.19;;;0.84;100.00
77881;BME280;67077;50.298;18.996;2024-01-06T04:52:43;96922.52;;;0.86;100.00
77881;BME280;67077;50.298;18.996;2024-01-06T04:55:11;96911.65;;;0.87;100.00
77881;BME280;67077;50.298;18.996;2024-01-06T04:57:40;96913.30;;;0.87;100.00
77881;BME280;67077;50.298;18.996;2024-01-06T05:00:08;96913.15;;;0.90;100.00
77881;BME280;67077;50.298;18.996;2024-01-06T05:02:36;96913.44;;;0.92;100.00
77881;BME280;67077;50.298;18.996;2024-01-06T05:05:04;96913.23;;;0.94;100.00
77881;BME280;67077;50.298;18.996;2024-01-06T05:07:31;96914.95;;;0.94;100.00
77881;BME280;67077;50.298;18.996;2024-01-06T05:09:59;96917.86;;;0.96;100.00
77881;BME280;67077;50.298;18.996;2024-01-06T05:12:27;96912.89;;;0.98;100.00
77881;BME280;67077;50.298;18.996;2024-01-06T05:14:55;96912.15;;;0.98;100.00
77881;BME280;67077;50.298;18.996;2024-01-06T05:17:22;96915.30;;;0.97;100.00
77881;BME280;67077;50.298;18.996;2024-01-06T05:19:50;96916.58;;;0.98;100.00
77881;BME280;67077;50.298;18.996;2024-01-06T05:22:18;96917.81;;;1.00;100.00
77881;BME280;67077;50.298;18.996;2024-01-06T05:24:46;96923.05;;;1.00;100.00
77881;BME280;67077;50.298;18.996;2024-01-06T05:27:14;96926.89;;;1.02;100.00
77881;BME280;67077;50.298;18.996;2024-01-06T05:29:41;96927.79;;;1.02;100.00
77881;BME280;67077;50.298;18.996;2024-01-06T05:32:09;96927.56;;;1.01;100.00
77881;BME280;67077;50.298;18.996;2024-01-06T05:34:37;96928.29;;;1.00;100.00
77881;BME280;67077;50.298;18.996;2024-01-06T05:37:05;96926.16;;;1.00;100.00
77881;BME280;67077;50.298;18.996;2024-01-06T05:39:32;96927.84;;;0.99;100.00
77881;BME280;67077;50.298;18.996;2024-01-06T05:42:00;96929.09;;;0.97;100.00
77881;BME280;67077;50.298;18.996;2024-01-06T05:44:28;96927.75;;;0.98;100.00
77881;BME280;67077;50.298;18.996;2024-01-06T05:46:56;96931.44;;;0.98;100.00
77881;BME280;67077;50.298;18.996;2024-01-06T05:49:23;96930.98;;;0.98;100.00
77881;BME280;67077;50.298;18.996;2024-01-06T05:51:52;96933.29;;;0.99;100.00
77881;BME280;67077;50.298;18.996;2024-01-06T05:54:19;96930.55;;;1.01;100.00
77881;BME280;67077;50.298;18.996;2024-01-06T05:56:47;96931.58;;;1.05;100.00
77881;BME280;67077;50.298;18.996;2024-01-06T05:59:15;96935.60;;;1.08;100.00
77881;BME280;67077;50.298;18.996;2024-01-06T06:01:43;96936.80;;;1.12;100.00
77881;BME280;67077;50.298;18.996;2024-01-06T06:04:11;96935.89;;;1.13;100.00
77881;BME280;67077;50.298;18.996;2024-01-06T06:06:39;96934.48;;;1.15;100.00
77881;BME280;67077;50.298;18.996;2024-01-06T06:09:07;96935.86;;;1.13;100.00
77881;BME280;67077;50.298;18.996;2024-01-06T06:11:36;96942.55;;;1.11;100.00
77881;BME280;67077;50.298;18.996;2024-01-06T06:14:04;96942.09;;;1.10;100.00
77881;BME280;67077;50.298;18.996;2024-01-06T06:16:32;96942.07;;;1.11;100.00
77881;BME280;67077;50.298;18.996;2024-01-06T06:19:00;96943.27;;;1.13;100.00
77881;BME280;67077;50.298;18.996;2024-01-06T06:21:28;96942.56;;;1.16;100.00
77881;BME280;67077;50.298;18.996;2024-01-06T06:23:55;96946.55;;;1.18;100.00
77881;BME280;67077;50.298;18.996;2024-01-06T06:26:23;96948.16;;;1.21;100.00
77881;BME280;67077;50.298;18.996;2024-01-06T06:28:51;96946.57;;;1.21;100.00
77881;BME280;67077;50.298;18.996;2024-01-06T06:31:19;96952.23;;;1.21;100.00
77881;BME280;67077;50.298;18.996;2024-01-06T06:33:47;96953.22;;;1.22;100.00
77881;BME280;67077;50.298;18.996;2024-01-06T06:36:15;96957.88;;;1.23;100.00
77881;BME280;67077;50.298;18.996;2024-01-06T06:38:43;96956.30;;;1.25;100.00
77881;BME280;67077;50.298;18.996;2024-01-06T06:41:10;96960.84;;;1.24;100.00
77881;BME280;67077;50.298;18.996;2024-01-06T06:43:38;96961.02;;;1.25;100.00
77881;BME280;67077;50.298;18.996;2024-01-06T06:46:06;96956.71;;;1.26;100.00
77881;BME280;67077;50.298;18.996;2024-01-06T06:48:34;96952.05;;;1.26;100.00
77881;BME280;67077;50.298;18.996;2024-01-06T06:51:03;96954.64;;;1.26;100.00
77881;BME280;67077;50.298;18.996;2024-01-06T06:53:31;96951.41;;;1.28;100.00
77881;BME280;67077;50.298;18.996;2024-01-06T06:55:59;96951.31;;;1.30;100.00
77881;BME280;67077;50.298;18.996;2024-01-06T06:58:27;96954.48;;;1.32;100.00
77881;BME280;67077;50.298;18.996;2024-01-06T07:00:54;96956.08;;;1.32;100.00
77881;BME280;67077;50.298;18.996;2024-01-06T07:03:22;96961.70;;;1.34;100.00
77881;BME280;67077;50.298;18.996;2024-01-06T07:05:50;96967.23;;;1.38;100.00
77881;BME280;67077;50.298;18.996;2024-01-06T07:08:18;96969.41;;;1.44;100.00
77881;BME280;67077;50.298;18.996;2024-01-06T07:10:46;96970.39;;;1.49;100.00
77881;BME280;67077;50.298;18.996;2024-01-06T07:13:14;96970.14;;;1.53;100.00
77881;BME280;67077;50.298;18.996;2024-01-06T07:15:41;96972.70;;;1.57;100.00
77881;BME280;67077;50.298;18.996;2024-01-06T07:18:09;96973.18;;;1.61;100.00
77881;BME280;67077;50.298;18.996;2024-01-06T07:20:37;96975.42;;;1.66;100.00
77881;BME280;67077;50.298;18.996;2024-01-06T07:23:05;96974.20;;;1.67;100.00
77881;BME280;67077;50.298;18.996;2024-01-06T07:25:33;96974.69;;;1.66;100.00
77881;BME280;67077;50.298;18.996;2024-01-06T07:28:00;96980.33;;;1.68;100.00
77881;BME280;67077;50.298;18.996;2024-01-06T07:30:30;96981.55;;;1.71;100.00
77881;BME280;67077;50.298;18.996;2024-01-06T07:32:58;96985.80;;;1.74;100.00
77881;BME280;67077;50.298;18.996;2024-01-06T07:35:26;96987.48;;;1.73;100.00
77881;BME280;67077;50.298;18.996;2024-01-06T07:37:54;96984.29;;;1.73;100.00
77881;BME280;67077;50.298;18.996;2024-01-06T07:40:22;96984.95;;;1.74;100.00
77881;BME280;67077;50.298;18.996;2024-01-06T07:42:51;96984.13;;;1.75;100.00
77881;BME280;67077;50.298;18.996;2024-01-06T07:45:19;96985.95;;;1.76;100.00
77881;BME280;67077;50.298;18.996;2024-01-06T07:47:46;96989.17;;;1.74;100.00
77881;BME280;67077;50.298;18.996;2024-01-06T07:50:14;96989.68;;;1.73;100.00
77881;BME280;67077;50.298;18.996;2024-01-06T07:52:42;96989.64;;;1.72;100.00
77881;BME280;67077;50.298;18.996;2024-01-06T07:55:10;96987.39;;;1.73;100.00
77881;BME280;67077;50.298;18.996;2024-01-06T07:57:38;96991.37;;;1.73;100.00
77881;BME280;67077;50.298;18.996;2024-01-06T08:00:06;96990.44;;;1.74;100.00
77881;BME280;67077;50.298;18.996;2024-01-06T08:02:34;96992.08;;;1.75;100.00
77881;BME280;67077;50.298;18.996;2024-01-06T08:05:01;96998.27;;;1.76;100.00
77881;BME280;67077;50.298;18.996;2024-01-06T08:07:30;97000.92;;;1.79;100.00
77881;BME280;67077;50.298;18.996;2024-01-06T08:09:58;97005.04;;;1.81;100.00
77881;BME280;67077;50.298;18.996;2024-01-06T08:12:26;97008.28;;;1.82;100.00
77881;BME280;67077;50.298;18.996;2024-01-06T08:14:54;97013.02;;;1.84;100.00
77881;BME280;67077;50.298;18.996;2024-01-06T08:17:21;97014.58;;;1.87;100.00
77881;BME280;67077;50.298;18.996;2024-01-06T08:19:49;97011.45;;;1.91;100.00
77881;BME280;67077;50.298;18.996;2024-01-06T08:22:17;97016.27;;;1.95;100.00
77881;BME280;67077;50.298;18.996;2024-01-06T08:24:45;97018.21;;;1.99;100.00
77881;BME280;67077;50.298;18.996;2024-01-06T08:27:13;97020.91;;;2.03;100.00
77881;BME280;67077;50.298;18.996;2024-01-06T08:29:40;97018.75;;;2.04;100.00
77881;BME280;67077;50.298;18.996;2024-01-06T08:32:08;97018.23;;;2.07;100.00
77881;BME280;67077;50.298;18.996;2024-01-06T08:34:37;97020.60;;;2.11;100.00
77881;BME280;67077;50.298;18.996;2024-01-06T08:37:05;97026.23;;;2.13;100.00
77881;BME280;67077;50.298;18.996;2024-01-06T08:39:33;97023.41;;;2.16;100.00
77881;BME280;67077;50.298;18.996;2024-01-06T08:42:01;97026.33;;;2.21;100.00
77881;BME280;67077;50.298;18.996;2024-01-06T08:44:29;97027.95;;;2.26;100.00
77881;BME280;67077;50.298;18.996;2024-01-06T08:46:57;97032.33;;;2.32;100.00
77881;BME280;67077;50.298;18.996;2024-01-06T08:49:25;97029.09;;;2.39;100.00
77881;BME280;67077;50.298;18.996;2024-01-06T08:51:52;97030.66;;;2.47;100.00
77881;BME280;67077;50.298;18.996;2024-01-06T08:54:20;97034.70;;;2.50;100.00
77881;BME280;67077;50.298;18.996;2024-01-06T08:56:48;97036.70;;;2.54;100.00
77881;BME280;67077;50.298;18.996;2024-01-06T08:59:16;97037.94;;;2.60;100.00
77881;BME280;67077;50.298;18.996;2024-01-06T09:01:43;97038.42;;;2.63;100.00
77881;BME280;67077;50.298;18.996;2024-01-06T09:04:11;97039.99;;;2.66;100.00
77881;BME280;67077;50.298;18.996;2024-01-06T09:06:40;97040.84;;;2.69;100.00
77881;BME280;67077;50.298;18.996;2024-01-06T09:09:09;97040.02;;;2.72;100.00
77881;BME280;67077;50.298;18.996;2024-01-06T09:11:37;97042.07;;;2.76;100.00
77881;BME280;67077;50.298;18.996;2024-01-06T09:14:05;97040.66;;;2.79;100.00
77881;BME280;67077;50.298;18.996;2024-01-06T09:16:33;97042.67;;;2.81;100.00
77881;BME280;67077;50.298;18.996;2024-01-06T09:19:01;97045.15;;;2.82;100.00
77881;BME280;67077;50.298;18.996;2024-01-06T09:21:28;97044.25;;;2.83;100.00
77881;BME280;67077;50.298;18.996;2024-01-06T09:23:56;97048.97;;;2.82;100.00
77881;BME280;67077;50.298;18.996;2024-01-06T09:26:24;97051.39;;;2.81;100.00
77881;BME280;67077;50.298;18.996;2024-01-06T09:28:52;97048.92;;;2.80;100.00
77881;BME280;67077;50.298;18.996;2024-01-06T09:31:21;97051.61;;;2.77;100.00
77881;BME280;67077;50.298;18.996;2024-01-06T09:33:49;97055.68;;;2.77;100.00
77881;BME280;67077;50.298;18.996;2024-01-06T09:36:17;97057.98;;;2.75;100.00
77881;BME280;67077;50.298;18.996;2024-01-06T09:38:46;97061.05;;;2.74;100.00
77881;BME280;67077;50.298;18.996;2024-01-06T09:41:13;97062.48;;;2.71;100.00
77881;BME280;67077;50.298;18.996;2024-01-06T09:43:41;97063.63;;;2.70;100.00
77881;BME280;67077;50.298;18.996;2024-01-06T09:46:24;97063.81;;;2.67;100.00
77881;BME280;67077;50.298;18.996;2024-01-06T09:48:55;97061.38;;;2.64;100.00
77881;BME280;67077;50.298;18.996;2024-01-06T09:51:25;97060.73;;;2.61;100.00
77881;BME280;67077;50.298;18.996;2024-01-06T09:54:01;97061.77;;;2.61;100.00
77881;BME280;67077;50.298;18.996;2024-01-06T09:56:29;97063.42;;;2.65;100.00
77881;BME280;67077;50.298;18.996;2024-01-06T09:58:57;97063.85;;;2.67;100.00
77881;BME280;67077;50.298;18.996;2024-01-06T10:01:25;97060.75;;;2.72;100.00
77881;BME280;67077;50.298;18.996;2024-01-06T10:03:53;97064.55;;;2.74;100.00
77881;BME280;67077;50.298;18.996;2024-01-06T10:06:21;97061.85;;;2.70;100.00
77881;BME280;67077;50.298;18.996;2024-01-06T10:08:50;97058.21;;;2.64;100.00
77881;BME280;67077;50.298;18.996;2024-01-06T10:11:19;97060.73;;;2.66;100.00
77881;BME280;67077;50.298;18.996;2024-01-06T10:13:49;97060.14;;;2.71;100.00
77881;BME280;67077;50.298;18.996;2024-01-06T10:16:18;97057.86;;;2.75;100.00
77881;BME280;67077;50.298;18.996;2024-01-06T10:18:46;97062.59;;;2.75;100.00
77881;BME280;67077;50.298;18.996;2024-01-06T10:21:16;97061.04;;;2.71;100.00
77881;BME280;67077;50.298;18.996;2024-01-06T10:23:45;97061.64;;;2.69;100.00
77881;BME280;67077;50.298;18.996;2024-01-06T10:26:13;97060.00;;;2.70;100.00
77881;BME280;67077;50.298;18.996;2024-01-06T10:28:41;97054.86;;;2.75;100.00
77881;BME280;67077;50.298;18.996;2024-01-06T10:31:09;97053.64;;;2.79;100.00
77881;BME280;67077;50.298;18.996;2024-01-06T10:33:38;97050.61;;;2.83;100.00
77881;BME280;67077;50.298;18.996;2024-01-06T10:36:07;97051.98;;;2.86;100.00
77881;BME280;67077;50.298;18.996;2024-01-06T10:38:36;97052.70;;;2.90;100.00
77881;BME280;67077;50.298;18.996;2024-01-06T10:41:04;97053.45;;;2.94;100.00
77881;BME280;67077;50.298;18.996;2024-01-06T10:43:36;97051.52;;;2.96;100.00
77881;BME280;67077;50.298;18.996;2024-01-06T10:46:08;97052.98;;;3.00;100.00
77881;BME280;67077;50.298;18.996;2024-01-06T10:48:39;97050.52;;;3.03;100.00
77881;BME280;67077;50.298;18.996;2024-01-06T10:51:10;97047.77;;;3.05;100.00
77881;BME280;67077;50.298;18.996;2024-01-06T10:53:42;97049.25;;;3.06;100.00
77881;BME280;67077;50.298;18.996;2024-01-06T10:56:10;97048.96;;;3.08;100.00
77881;BME280;67077;50.298;18.996;2024-01-06T10:58:45;97048.80;;;3.08;100.00
77881;BME280;67077;50.298;18.996;2024-01-06T11:01:15;97050.33;;;3.10;100.00
77881;BME280;67077;50.298;18.996;2024-01-06T11:03:48;97046.59;;;3.12;100.00
77881;BME280;67077;50.298;18.996;2024-01-06T11:06:20;97042.53;;;3.14;100.00
77881;BME280;67077;50.298;18.996;2024-01-06T11:08:54;97039.55;;;3.17;100.00
77881;BME280;67077;50.298;18.996;2024-01-06T11:11:25;97038.06;;;3.15;100.00
77881;BME280;67077;50.298;18.996;2024-01-06T11:14:23;97037.91;;;3.16;100.00
77881;BME280;67077;50.298;18.996;2024-01-06T11:16:55;97042.63;;;3.16;100.00
77881;BME280;67077;50.298;18.996;2024-01-06T11:24:52;97043.06;;;3.11;100.00
77881;BME280;67077;50.298;18.996;2024-01-06T11:27:23;97042.53;;;3.12;100.00
77881;BME280;67077;50.298;18.996;2024-01-06T11:29:51;97039.16;;;3.14;100.00
77881;BME280;67077;50.298;18.996;2024-01-06T11:32:35;97036.27;;;3.17;100.00
77881;BME280;67077;50.298;18.996;2024-01-06T11:35:07;97034.87;;;3.19;100.00
77881;BME280;67077;50.298;18.996;2024-01-06T11:40:23;97033.07;;;3.25;100.00
77881;BME280;67077;50.298;18.996;2024-01-06T11:45:28;97028.77;;;3.21;100.00
77881;BME280;67077;50.298;18.996;2024-01-06T11:47:58;97029.53;;;3.19;100.00
77881;BME280;67077;50.298;18.996;2024-01-06T11:50:27;97025.52;;;3.20;100.00
77881;BME280;67077;50.298;18.996;2024-01-06T11:52:55;97024.36;;;3.21;100.00
77881;BME280;67077;50.298;18.996;2024-01-06T11:55:23;97023.04;;;3.19;100.00
77881;BME280;67077;50.298;18.996;2024-01-06T11:57:51;97020.57;;;3.17;100.00
77881;BME280;67077;50.298;18.996;2024-01-06T12:00:19;97021.84;;;3.17;100.00
77881;BME280;67077;50.298;18.996;2024-01-06T12:02:47;97023.27;;;3.13;100.00
77881;BME280;67077;50.298;18.996;2024-01-06T12:05:17;97023.80;;;3.13;100.00
77881;BME280;67077;50.298;18.996;2024-01-06T12:07:56;97025.41;;;3.14;100.00
77881;BME280;67077;50.298;18.996;2024-01-06T12:10:26;97025.99;;;3.16;100.00
77881;BME280;67077;50.298;18.996;2024-01-06T12:12:56;97019.66;;;3.17;100.00
77881;BME280;67077;50.298;18.996;2024-01-06T12:15:31;97020.33;;;3.19;100.00
77881;BME280;67077;50.298;18.996;2024-01-06T12:18:03;97023.58;;;3.19;100.00
77881;BME280;67077;50.298;18.996;2024-01-06T12:20:32;97026.15;;;3.18;100.00
77881;BME280;67077;50.298;18.996;2024-01-06T12:22:59;97025.05;;;3.16;100.00
77881;BME280;67077;50.298;18.996;2024-01-06T12:25:28;97032.56;;;3.14;100.00
77881;BME280;67077;50.298;18.996;2024-01-06T12:27:56;97031.44;;;3.12;100.00
77881;BME280;67077;50.298;18.996;2024-01-06T12:30:24;97025.97;;;3.10;100.00
77881;BME280;67077;50.298;18.996;2024-01-06T12:32:53;97031.71;;;3.09;100.00
77881;BME280;67077;50.298;18.996;2024-01-06T12:35:21;97032.30;;;3.09;100.00
77881;BME280;67077;50.298;18.996;2024-01-06T12:37:51;97037.96;;;3.09;100.00
77881;BME280;67077;50.298;18.996;2024-01-06T12:40:19;97039.64;;;3.08;100.00
77881;BME280;67077;50.298;18.996;2024-01-06T12:42:47;97040.63;;;3.05;100.00
77881;BME280;67077;50.298;18.996;2024-01-06T12:45:15;97046.87;;;3.04;100.00
77881;BME280;67077;50.298;18.996;2024-01-06T12:47:46;97046.00;;;3.02;100.00
77881;BME280;67077;50.298;18.996;2024-01-06T12:50:13;97049.31;;;2.99;100.00
77881;BME280;67077;50.298;18.996;2024-01-06T12:52:43;97048.20;;;2.98;100.00
77881;BME280;67077;50.298;18.996;2024-01-06T12:55:11;97044.09;;;2.97;100.00
77881;BME280;67077;50.298;18.996;2024-01-06T12:57:39;97049.64;;;2.96;100.00
77881;BME280;67077;50.298;18.996;2024-01-06T13:00:08;97052.41;;;2.93;100.00
77881;BME280;67077;50.298;18.996;2024-01-06T13:02:38;97051.06;;;2.90;100.00
77881;BME280;67077;50.298;18.996;2024-01-06T13:05:06;97052.98;;;2.88;100.00